空港情報

日本の空港の気象及び、管制情報です。
気象情報はより詳細な情報が取得できる「AVIATION WEATER CENTER」 から取得しているため、VATSIMの気象情報と若干のタイムラグが生じることがあります。

VRCのフィールド設定用空港一覧はこちらをご覧ください。

RJCG Sapporo Control

RJCW / Wakkanai
VMC

NO RADAR

RADIO

08/26 2200x45

民間 civil

9999

260@14KT

29.76

RJCW 240900Z 26014KT 9999 FEW030 BKN050 M03/M12 Q1008

RJER / Rishiri

NO RADAR

REMOTE

25/07 1800x45

民間 civil

過去5時間に発表されたMETARがありません。

RJEB / Monbetsu
IMC

NO RADAR

REMOTE

32/14 2000x45

民間 civil

0900

320@13KT

29.70

RJEB 240700Z 32013KT 0900 R32/0600V1300U SHSN VV003 M03/M04 Q1006

RJCM / Memanbetsu
VMC

NO RADAR

TOWER

36/18 2500x45

民間 civil

9999

140@3KT

29.82

RJCM 241100Z 14003KT 9999 FEW010 SCT020 M05/M07 Q1010

RJEC / Asahikawa
VMC

NO RADAR

TOWER

34/16 2500x60

民間 civil

9999

150@6KT

29.85

RJEC 241100Z 15006KT 9999 FEW025 BKN060 M06/M09 Q1011

RJCN / Nakashibetsu
IMC

NO RADAR

RADIO

08/26 2000x45

民間 civil

1600

240@3KT

29.73

RJCN 240910Z 24003KT 1600 R08/1200VP2000U -SHSN FEW003 SCT005 BKN007 M03/M04 Q1007 RMK 1ST003 3ST005 6ST007 A2974

RJCK / Kushiro
VMC

NO RADAR

TOWER

17/35 2500x45

民間 civil

9999

280@8KT

29.79

RJCK 241100Z 28008KT 9999 FEW020 M02/M10 Q1009

RJCO / Sapporo
VMC

RJCO_APP

TOWER

14/32 1500x30

共用 dual

9999

160@4KT

29.91

RJCO 241100Z 16004KT 9999 FEW010 BKN050 M02/M09 Q1013

RJCJ / Chitose

RJCC_APP

TOWER

36R/18L 3000x60
36L/18R 2700x45

自衛隊 military

過去5時間に発表されたMETARがありません。

RJCC / NewChitose
VMC

RJCC_APP

TOWER

01L/19R 3000x60
01R/19L 3000x60

民間 civil

9999

120@3KT

29.91

RJCC 241130Z 12003KT 9999 FEW015 BKN060 M03/M10 Q1013

RJCB / Obihiro
VMC

NO RADAR

TOWER

35/17 2500x45

民間 civil

9999

330@11KT

29.82

RJCB 241100Z 33011KT 290V350 9999 FEW030 M03/M11 Q1010

RJEO / Okushiri

NO RADAR

REMOTE

12/30 1500x45

民間 civil

過去5時間に発表されたMETARがありません。

RJCH / Hakodate
VMC

RJCH_APP

TOWER

12/30 3000x45

民間 civil

9999

270@14KT

29.94

RJCH 241100Z 27014KT 9999 FEW025 SCT040 01/M06 Q1014

RJSA / Aomori
VMC

NO RADAR

TOWER

24/06 3000x60

民間 civil

9999

220@12KT

29.97

RJSA 241100Z 22012KT 9999 FEW020 BKN040 M03/M08 Q1015

RJSO / Ominato

RJSM_APP

TOWER

04/22 600x45

自衛隊 military

過去5時間に発表されたMETARがありません。

RJSM / Misawa
VMC

RJSM_APP

TOWER

10/28 3050x45

共用 dual

9999

270@11KT

29.97

RJSM 241100Z 27011KT 9999 FEW030 M01/M11 Q1015

RJSH / Hachinohe
VMC

RJSM_APP

TOWER

25/07 2250x45

自衛隊 military

9999

300@15G25KT

29.88

RJSH 240718Z 30015G25KT 9999 FEW020 SCT030 02/M08 Q1012 RMK 1CU020 3CU030 A2991

RJSK / Akita
VMC

NO RADAR

TOWER

10/28 2500x60

民間 civil

9999

300@6KT

30.03

RJSK 241100Z 30006KT 9999 FEW030 SCT040 01/M07 Q1017

RJSI / Hanamaki
VMC

NO RADAR

RADIO

20/02 2500x45

民間 civil

9999

280@6KT

30.00

RJSI 241000Z 28006KT 210V010 9999 FEW020 BKN040 01/M08 Q1016

RJSR / Odate-Noshiro
VMC

NO RADAR

REMOTE

11/29 2000x45

民間 civil

9999

250@10KT

30.00

RJSR 241000Z 25010KT 9999 FEW020 SCT040 M01/M09 Q1016

RJTG Tokyo Control

RJSY / Shonai
VMC

NO RADAR

RADIO

09/27 2000x45

民間 civil

9999

270@14KT

30.06

RJSY 241100Z 27014KT 250V310 9999 FEW030 BKN045 04/M05 Q1018

RJSC / Yamagata
VMC

NO RADAR

RADIO

01/19 2000x45

民間 civil

9999

280@5KT

30.03

RJSC 241000Z 28005KT 9999 FEW040 SCT050 02/M07 Q1017

RJST / Matsushima

RJSS_APP

TOWER

07/25 2071x46
15/33 1500x46

自衛隊 military

過去5時間に発表されたMETARがありません。

RJSS / Sendai
VMC

RJSS_APP

TOWER

27/09 3000x45
12/30 1200x45

民間 civil

9999

290@3KT

30.03

RJSS 241100Z 29003KT 230V340 9999 FEW030 04/M09 Q1017

RJSD / Sado
VMC

NO RADAR

REMOTE

10/28 890x25

民間 civil

9999

000@2KT

30.09

RJSD 241100Z AUTO VRB02KT 9999 NSC M00/M03 Q1019

RJSN / Niigata
VMC

RJSN_APP

TOWER

10/28 2500x45
04/22 1314x45

民間 civil

9999

200@10KT

30.09

RJSN 241128Z 20010KT 9999 FEW030 BKN050 05/M07 Q1019 RMK 1CU030 6SC050 A3011

RJSF / Fukushima
VMC

NO RADAR

RADIO

01/19 2500x60

民間 civil

9999

320@3KT

30.03

RJSF 241100Z 32003KT 290V020 9999 BKN045 01/M07 Q1017

RJAH / Ibaraki/Hyakuri
VMC

RJAH_APP

TOWER

03L/21R 2700x45
03R/21L 2700x45

共用 dual

9999

010@8KT

30.00

RJAH 241100Z 01008KT 9999 FEW030 05/M08 Q1016

RJTT / Tokyo
VMC

RJTT_APP

TOWER

34LR/16RL 3000x60
04/22&05/23 2500x60

民間 civil

9999

010@7KT

30.03

RJTT 241130Z 01007KT 360V060 9999 FEW030 11/M04 Q1017 NOSIG

RJAA / Narita
VMC

RJTT_APP

TOWER

34L/16R 4000x60
34R/16L 2500x60

民間 civil

9999

090@4KT

30.03

RJAA 241130Z 09004KT 030V140 9999 FEW030 06/M04 Q1017 BECMG 34005KT

RJTL / Shimofusa

RJTT_APP

TOWER

19/01 2250x45

自衛隊 military

過去5時間に発表されたMETARがありません。

RJTE / Tateyama

RJTT_APP

TOWER

09/27 300x45

自衛隊 military

過去5時間に発表されたMETARがありません。

RJTO / Oshima
VMC

NO RADAR

RADIO

03/21 1800x45

民間 civil

9999

220@8KT

29.91

RJTO 240800Z 22008KT 9999 FEW040 13/M01 Q1013

RJTK / Kisarazu

NO RADAR

TOWER

02/20 1830x45

自衛隊 military

過去5時間に発表されたMETARがありません。

RJAN / Niijima

NO RADAR

REMOTE

11/29 800x25

自衛隊 military

過去5時間に発表されたMETARがありません。

RJAZ / Kozushima

NO RADAR

REMOTE

11/29 800x25

民間 civil

過去5時間に発表されたMETARがありません。

RJTH / Hachijojima

NO RADAR

RADIO

26/08 2000x45

民間 civil

過去5時間に発表されたMETARがありません。

RJTF / Chofu
VMC

NO RADAR

Flight Service

35/17 800x30

民間 civil

9999

360@7KT

29.94

RJTF 240700Z 36007KT 330V050 9999 FEW030 SCT080 12/M09 Q1014

RJTQ / Miyake

NO RADAR

REMOTE

02/20 1200x30

民間 civil

過去5時間に発表されたMETARがありません。

RJTC / Tachikawa

NO RADAR

TOWER

01/19 900x45

自衛隊 military

過去5時間に発表されたMETARがありません。

RJTA / Atsugi

NO RADAR

TOWER

01/19 2438x45

自衛隊 military

過去5時間に発表されたMETARがありません。

RJTU / Utsunomiya

RJTY_APP

TOWER

01/19 1700x45

自衛隊 military

過去5時間に発表されたMETARがありません。

RJTJ / Iruma

RJTY_APP

TOWER

17/35 2000x45

自衛隊 military

過去5時間に発表されたMETARがありません。

RJTY / Yokota
VMC

RJTY_APP

TOWER

18/36 3353x60

自衛隊 military

9999

020@8KT

30.06

RJTY 241056Z AUTO 02008KT 10SM CLR 06/M07 A3006 RMK AO2 SLP189 T00631073 FZRANO $

RJAF / Matsumoto
VMC

NO RADAR

RADIO

18/36 2000x45

民間 civil

9999

340@11KT

29.91

RJAF 240700Z 34011KT 310V020 9999 FEW070 07/M11 Q1013

RJNS / Shizuoka
VMC

NO RADAR

RADIO

30/12 2500x60

民間 civil

9999

270@20KT

29.97

RJNS 241100Z 27020KT 9999 FEW030 08/M06 Q1015

RJNY / Yaizu-Shizuhama

NO RADAR

TOWER

27/09 1500x45

自衛隊 military

過去5時間に発表されたMETARがありません。

RJNH / Hamamatsu

RJNH_APP

TOWER

09/27 2550x60

自衛隊 military

過去5時間に発表されたMETARがありません。

RJGG / Chubu
VMC

RJGG_APP

TOWER

36/18 3500x60

民間 civil

9999

330@15KT

30.09

RJGG 241130Z 33015KT 9999 FEW030 09/00 Q1019 NOSIG

RJNA / Nagoya

RJGG_APP

TOWER

34/16 2740x45

民間 civil

過去5時間に発表されたMETARがありません。

RJNG / Gifu

RJGG_APP

TOWER

28/10 2710x46

自衛隊 military

過去5時間に発表されたMETARがありません。

RJOE / Akeno

RJOE_APP

TOWER

13/31 500x30
04/22 500x30

自衛隊 military

過去5時間に発表されたMETARがありません。

RJNK / Komatsu
VMC

RJNK_APP

TOWER

06/24 2700x45

共用 dual

9999

140@4KT

30.12

RJNK 241100Z 14004KT 9999 FEW050 05/M02 Q1020

RJNW / Noto
VMC

NO RADAR

RADIO

25/07 2000x45

民間 civil

9999

000@0KT

30.06

RJNW 241000Z 00000KT 9999 FEW030 SCT050 02/M06 Q1018

RJNT / Toyama
VMC

NO RADAR

TOWER

20/02 2000x45

民間 civil

9999

180@4KT

30.12

RJNT 241100Z 18004KT 9999 FEW050 04/00 Q1020

RJNF / Fukui

NO RADAR

REMOTE

18/36 1200x30

民間 civil

過去5時間に発表されたMETARがありません。

RJBD / Nanki-Shirahama
VMC

NO RADAR

RADIO

15/33 2000x45

民間 civil

9999

290@5KT

30.09

RJBD 241000Z 29005KT 9999 FEW035 SCT050 10/M01 Q1019

RJOY / Yao
VMC

RJBB_APP

TOWER

27/09 1490x45
13/31 1200x30

民間 civil

9999

260@7KT

30.09

RJOY 241000Z 26007KT 9999 FEW060 10/M01 Q1019

RJOO / Osaka
VMC

RJBB_APP

TOWER

32L/14R 3000x60
32R/14L 1830x45

民間 civil

9999

000@2KT

30.09

RJOO 241100Z VRB02KT 9999 FEW030 BKN060 09/02 Q1019 RMK 1CU030 5SC060 A3011

RJOB / Okayama
VMC

RJBB_APP

TOWER

07/25 3000x45

民間 civil

9999

250@4KT

30.06

RJOB 241100Z 25004KT 9999 FEW025 07/01 Q1018

RJBB / Kansai
VMC

RJBB_APP

TOWER

06R/24L 3500x60
06L/24R 4000x60

民間 civil

9999

210@6KT

30.09

RJBB 241130Z 21006KT 9999 FEW040 10/04 Q1019 NOSIG

RJBE / Kobe
VMC

RJBB_APP

TOWER

09/27 2500x60

民間 civil

9999

310@3KT

30.09

RJBE 241100Z 31003KT 9999 FEW030 08/00 Q1019

RJBT / Tajima
VMC

NO RADAR

REMOTE

01/19 1200x30

民間 civil

9999

000@2KT

30.03

RJBT 240900Z VRB02KT 9999 FEW025 SCT035 07/07 Q1017

RJOR / Tottori
VMC

NO RADAR

RADIO

10/28 2000x45

民間 civil

9999

170@4KT

30.09

RJOR 241100Z 17004KT 130V220 9999 FEW030 06/04 Q1019

RJNO / Oki

NO RADAR

REMOTE

07/25 2000x45

民間 civil

過去5時間に発表されたMETARがありません。

RJOH / Miho
VMC

RJOH_APP

TOWER

25/07 2500x45

共用 dual

9999

230@8KT

30.09

RJOH 241100Z 23008KT 9999 FEW060 08/00 Q1019

RJOC / Izumo
VMC

RJOH_APP

RADIO

07/25 2000x45

共用 dual

9999

220@10KT

30.06

RJOC 241100Z 22010KT 9999 FEW030 08/01 Q1018

RJDG Fukuoka Control

RJOT / Takamatsu
VMC

RJBB_APP

TOWER

26/08 2500x60

民間 civil

9999

140@6KT

30.09

RJOT 241100Z 14006KT 9999 FEW025 06/M01 Q1019

RJOK / Kochi
VMC

RJBB_APP

TOWER

32/14 2500x45

民間 civil

9999

360@6KT

30.09

RJOK 241100Z 36006KT 9999 FEW035 09/03 Q1019

RJOS / Tokushima
VMC

RJOS_APP

TOWER

29/11 2500x45

共用 dual

9999

190@10KT

30.09

RJOS 241100Z 19010KT 9999 FEW030 10/02 Q1019

RJOA / Hiroshima
VMC

RJOA_APP

TOWER

10/28 3000x60

民間 civil

9999

000@3KT

30.06

RJOA 241100Z VRB03KT 9999 FEW030 06/M02 Q1018

RJBH / Hiroshimanishi

NO RADAR

Flight Service

04/22 1800x45

民間 civil

過去5時間に発表されたMETARがありません。

RJOI / Iwakuni
VMC

RJOI_APP

TOWER

02/20 2440x60

共用 dual

9999

200@11KT

30.11

RJOI 241055Z 20011KT 9999 FEW030 10/03 A3011 RMK SLP195 T01000028

RJOM / Matsuyama
VMC

RJOI_APP

TOWER

14/32 2500x45

民間 civil

9999

210@9KT

30.12

RJOM 241100Z 21009KT 9999 FEW030 10/02 Q1020

RJOZ / Ozuki

RJFZ_APP

TOWER

35/17 1201x61
12/30 899x46

自衛隊 military

過去5時間に発表されたMETARがありません。

RJOF / Hofu

RJFZ_APP

TOWER

30/12 1180x60
01/19 1480x45

自衛隊 military

過去5時間に発表されたMETARがありません。

RJDC / Yamaguchi-Ube
VMC

RJFZ_APP

RADIO

07/25 2500x45

民間 civil

9999

270@12KT

30.12

RJDC 241100Z 27012KT 9999 FEW030 SCT/// 10/M03 Q1020

RJFR / Kitakyushu
VMC

RJFZ_APP

TOWER

18/36 2500x60

民間 civil

9999

270@13KT

30.12

RJFR 241100Z 27013KT CAVOK 10/M01 Q1020

RJFZ / Tsuiki

RJFZ_APP

TOWER

25/07 2399x46

自衛隊 military

過去5時間に発表されたMETARがありません。

RJOW / Iwami
VMC

NO RADAR

REMOTE

11/29 2000x45

民間 civil

9999

220@3KT

30.09

RJOW 241000Z 22003KT 9999 FEW050 08/02 Q1019

RJDT / Tsushima
VMC

NO RADAR

REMOTE

32/14 1900x45

民間 civil

9999

260@3KT

30.09

RJDT 241100Z 26003KT 190V310 9999 FEW035 BKN/// 08/M01 Q1019

RJFF / Fukuoka
VMC

RJFF_APP

TOWER

16/34 2800x60

民間 civil

9999

280@8G18KT

30.15

RJFF 241130Z 28008G18KT 240V310 CAVOK 09/M00 Q1021 BECMG 21005KT

RJFS / Saga
VMC

RJFF_APP

RADIO

29/11 2000x45

民間 civil

9999

280@14KT

30.15

RJFS 241100Z 28014KT CAVOK 09/01 Q1021

RJFA / Ashiya

RJFF_APP

TOWER

12/30 1640x46

自衛隊 military

過去5時間に発表されたMETARがありません。

RJDB / Iki

RJFF_APP

REMOTE

20/02 1200x30

民間 civil

過去5時間に発表されたMETARがありません。

RJFO / Oita
VMC

RJFO_APP

TOWER

01/19 3000x45

民間 civil

9999

260@3KT

30.12

RJFO 241100Z 26003KT 230V290 CAVOK 07/02 Q1020

RJFU / Nagasaki
VMC

RJFU_APP

TOWER

32/14 3000x60

民間 civil

9999

310@8KT

30.15

RJFU 241100Z 31008KT CAVOK 09/02 Q1021

RJDU / Omura

RJFU_APP

TOWER

18/36 1200x30

自衛隊 military

過去5時間に発表されたMETARがありません。

RJFE / Fukue
VMC

NO RADAR

RADIO

03/21 2000x45

民間 civil

9999

330@4KT

30.15

RJFE 241000Z 33004KT 300V010 CAVOK 07/01 Q1021

RJDO / Ojika

NO RADAR

REMOTE

03/21 800x30

民間 civil

過去5時間に発表されたMETARがありません。

RJDK / Kamigoto
VMC

NO RADAR

REMOTE

17/35 800x30

民間 civil

9999

270@8KT

30.15

RJDK 241100Z AUTO 27008KT 9999 NSC 08/02 Q1021

RJDA / Amakusa

NO RADAR

Flight Service

31/13 1000x30

民間 civil

過去5時間に発表されたMETARがありません。

RJFT / Kumamoto
VMC

RJFT_APP

TOWER

07/25 3000x45

民間 civil

9999

190@3KT

30.15

RJFT 241100Z 19003KT 160V220 CAVOK 07/01 Q1021

RJFN / Nyutabaru

RJFM_APP

TOWER

28/10 2701x46

自衛隊 military

過去5時間に発表されたMETARがありません。

RJFM / Miyazaki
VMC

RJFM_APP

TOWER

27/09 2500x45

民間 civil

9999

250@5KT

30.12

RJFM 241100Z 25005KT 9999 FEW030 12/06 Q1020

RJFK / Kagoshima
VMC

RJFK_APP

TOWER

34/16 3000x45

民間 civil

9999

280@5KT

30.12

RJFK 241100Z 28005KT 9999 FEW025 08/00 Q1020 RMK 1CU025 A3015

RJFY / Kanoya
VMC

RJFY_APP

TOWER

26L/08R 2250x45
26R/08L 1200x40

自衛隊 military

9999

290@12KT

30.12

RJFY 241025Z 29012KT 9999 FEW030 11/03 Q1020 RMK 1CU030 A3014

RJFG / Tanegashima
VMC

NO RADAR

RADIO

31/13 2000x45

民間 civil

9999

280@11KT

30.09

RJFG 240900Z 28011KT 9999 FEW030 11/03 Q1019

RJFC / Yakushima

NO RADAR

REMOTE

14/32 1500x45

民間 civil

過去5時間に発表されたMETARがありません。

RJBG Kobe Control

ROAH / Naha
VMC

ROAH_APP

TOWER

36/18 3000x45

共用 dual

9999

050@6KT

30.12

ROAH 241130Z 05006KT 350V070 9999 FEW035 BKN080 18/09 Q1020

RORA / Aguni

ROAH_APP

REMOTE

01/19 800x25

民間 civil

過去5時間に発表されたMETARがありません。

ROKJ / Kumejima

ROAH_APP

REMOTE

03/21 2000x45

民間 civil

過去5時間に発表されたMETARがありません。

RODN / Kadena
VMC

ROAH_APP

TOWER

05L/23R 3688x91
05R/23L 3688x61

自衛隊 military

9999

040@5KT

30.15

RODN 241056Z 04005KT 10SM FEW190 19/09 A3015 RMK AO2A SLPNO ALSTG ESTMD $

ROTM / Futenma
VMC

ROAH_APP

TOWER

06/24 2740x45

自衛隊 military

9999

050@5KT

30.15

ROTM 241056Z COR 05005KT 9999 BKN040 BKN120 18/08 A3015 RMK SLP199 T01820084

RORS / Shimojishima
VMC

RORS_APP

TOWER

17/35 3000x60

民間 civil

9999

090@10KT

30.06

RORS 241000Z 09010KT 9999 FEW032 SCT050 BKN060 19/13 Q1018

ROMY / Miyako
VMC

RORS_APP

TOWER

04/22 2000x45

民間 civil

9999

090@11KT

30.06

ROMY 241100Z 09011KT 9999 FEW029 BKN049 19/14 Q1018

ROIG / New Ishigaki
VMC

RORS_APP

TOWER

22/04 2000x45

民間 civil

9999

090@12KT

30.06

ROIG 241100Z 09012KT 9999 SCT028 BKN035 21/15 Q1018

RORT / Tarama

RORS_APP

REMOTE

36/18 1500x45

民間 civil

過去5時間に発表されたMETARがありません。

RJKA / Amami
VMC

NO RADAR

RADIO

03/21 2000x45

民間 civil

9999

340@4KT

30.12

RJKA 241000Z 34004KT 300V010 9999 FEW040 BKN/// 14/08 Q1020

RJKI / Kikai
VMC

NO RADAR

REMOTE

07/25 1200x30

民間 civil

9999

350@5KT

30.15

RJKI 241100Z AUTO 35005KT 310V030 9999 FEW036 BKN048 BKN200 16/09 Q1021

RJKN / Tokunoshima

NO RADAR

REMOTE

19/01 2000x45

民間 civil

過去5時間に発表されたMETARがありません。

RJKB / Okierabu

NO RADAR

REMOTE

04/22 1350x45

民間 civil

過去5時間に発表されたMETARがありません。

RORY / Yoron
VMC

NO RADAR

REMOTE

32/14 1320x30

民間 civil

9999

030@4KT

30.12

RORY 241100Z AUTO 03004KT 9999 NSC 17/10 Q1020

RORK / Kitadaito
VMC

NO RADAR

REMOTE

03/21 1500x45

民間 civil

9999

050@8KT

30.12

RORK 241100Z AUTO 05008KT 9999 NSC 18/08 Q1020

ROMD / Minami-daito
VMC

NO RADAR

REMOTE

02/20 1500x45

民間 civil

9999

020@8KT

30.12

ROMD 241100Z AUTO 02008KT 9999 NSC 18/08 Q1020

ROYN / Yonaguni
VMC

NO RADAR

REMOTE

26/08 2000x45

民間 civil

9999

140@4KT

30.06

ROYN 241100Z AUTO 14004KT 090V170 9999 -RA FEW029 OVC033 19/16 Q1018

RORH / Hateruma

NO RADAR

REMOTE

02/20 800x25

民間 civil

過去5時間に発表されたMETARがありません。

ROKR / Kerama

NO RADAR

REMOTE

02/20 800x25

民間 civil

過去5時間に発表されたMETARがありません。